createdAt,value
2018-06-13T00:00:03.988Z,49.33
2018-06-13T00:01:04.013Z,49.33
2018-06-13T00:02:04.062Z,49.24
2018-06-13T00:03:04.028Z,49.63
2018-06-13T00:04:04.056Z,49.72
2018-06-13T00:05:04.067Z,49.53
2018-06-13T00:06:04.077Z,49.72
2018-06-13T00:07:04.108Z,49.82
2018-06-13T00:08:04.083Z,49.82
2018-06-13T00:09:04.105Z,49.43
2018-06-13T00:10:04.116Z,49.43
2018-06-13T00:11:04.130Z,49.15
2018-06-13T00:12:04.174Z,49.91
2018-06-13T00:13:04.159Z,49.05
2018-06-13T00:14:04.162Z,49.91
2018-06-13T00:15:04.176Z,49.91
2018-06-13T00:16:04.190Z,50.01
2018-06-13T00:17:04.218Z,49.53
2018-06-13T00:18:04.229Z,49.53
2018-06-13T00:19:04.223Z,49.24
2018-06-13T00:20:04.370Z,49.33
2018-06-13T00:21:04.248Z,49.72
2018-06-13T00:22:04.260Z,49.63
2018-06-13T00:23:04.299Z,49.43
2018-06-13T00:24:04.304Z,50.20
2018-06-13T00:25:04.317Z,50.10
2018-06-13T00:26:04.306Z,49.99
2018-06-13T00:27:04.318Z,50.01
2018-06-13T00:28:04.357Z,50.01
2018-06-13T00:29:04.387Z,50.01
2018-06-13T00:30:04.352Z,50.10
2018-06-13T00:31:04.380Z,50.10
2018-06-13T00:32:04.386Z,50.10
2018-06-13T00:33:04.419Z,50.01
2018-06-13T00:34:04.442Z,50.01
2018-06-13T00:35:04.456Z,50.01
2018-06-13T00:36:04.440Z,49.82
2018-06-13T00:37:04.467Z,50.10
2018-06-13T00:38:04.453Z,49.63
2018-06-13T00:39:04.459Z,50.01
2018-06-13T00:40:04.523Z,50.01
2018-06-13T00:41:04.527Z,50.40
2018-06-13T00:42:04.507Z,50.20
2018-06-13T00:43:04.517Z,50.78
2018-06-13T00:44:04.515Z,50.78
2018-06-13T00:45:04.582Z,50.49
2018-06-13T00:46:04.584Z,50.59
2018-06-13T00:47:04.627Z,50.49
2018-06-13T00:48:04.569Z,50.59
2018-06-13T00:49:04.598Z,50.20
2018-06-13T00:50:04.603Z,50.78
2018-06-13T00:51:04.628Z,50.59
2018-06-13T00:52:04.660Z,50.59
2018-06-13T00:53:04.640Z,50.87
2018-06-13T00:54:04.648Z,50.78
2018-06-13T00:55:04.720Z,51.26
2018-06-13T00:56:04.706Z,51.64
2018-06-13T00:57:04.680Z,51.45
2018-06-13T00:58:04.703Z,51.26
2018-06-13T00:59:04.706Z,51.74
2018-06-13T01:00:04.742Z,51.55
2018-06-13T01:01:04.748Z,51.84
2018-06-13T01:02:04.782Z,51.74
2018-06-13T01:03:04.762Z,51.93
2018-06-13T01:04:04.822Z,52.42
2018-06-13T01:05:04.783Z,52.61
2018-06-13T01:06:04.799Z,52.70
2018-06-13T01:07:04.799Z,52.70
2018-06-13T01:08:04.817Z,52.58
2018-06-13T01:09:04.860Z,52.48
2018-06-13T01:10:04.840Z,52.58
2018-06-13T01:11:04.847Z,52.61
2018-06-13T01:12:04.876Z,52.99
2018-06-13T01:13:04.908Z,52.87
2018-06-13T01:14:04.941Z,53.25
2018-06-13T01:15:04.900Z,53.06
2018-06-13T01:16:04.908Z,53.54
2018-06-13T01:17:04.922Z,53.45
2018-06-13T01:18:04.950Z,53.06
2018-06-13T01:19:05.014Z,53.45
2018-06-13T01:20:04.966Z,53.54
2018-06-13T01:21:04.980Z,54.12
2018-06-13T01:22:04.986Z,54.41
2018-06-13T01:23:05.020Z,54.12
2018-06-13T01:24:05.017Z,54.02
2018-06-13T01:25:05.040Z,54.02
2018-06-13T01:26:05.054Z,54.41
2018-06-13T01:27:05.058Z,54.12
2018-06-13T01:28:05.087Z,54.50
2018-06-13T01:29:05.068Z,54.22
2018-06-13T01:30:05.084Z,54.31
2018-06-13T01:31:05.099Z,54.12
2018-06-13T01:32:05.097Z,54.89
2018-06-13T01:33:05.144Z,54.79
2018-06-13T01:34:05.162Z,54.41
2018-06-13T01:35:05.140Z,54.99
2018-06-13T01:36:05.157Z,54.69
2018-06-13T01:37:05.198Z,54.79
2018-06-13T01:38:05.185Z,54.60
2018-06-13T01:39:05.241Z,54.50
2018-06-13T01:40:05.208Z,55.08
2018-06-13T01:41:05.222Z,54.79
2018-06-13T01:42:05.219Z,55.18
2018-06-13T01:43:05.243Z,54.99
2018-06-13T01:44:05.287Z,55.18
2018-06-13T01:45:05.290Z,55.18
2018-06-13T01:46:05.297Z,55.85
2018-06-13T01:47:05.298Z,55.94
2018-06-13T01:48:05.311Z,56.30
2018-06-13T01:49:05.304Z,56.11
2018-06-13T01:50:05.378Z,56.49
2018-06-13T01:51:05.338Z,56.01
2018-06-13T01:52:05.354Z,56.59
2018-06-13T01:53:05.357Z,56.01
2018-06-13T01:54:05.362Z,56.40
2018-06-13T01:55:05.405Z,56.78
2018-06-13T01:56:05.384Z,55.91
2018-06-13T01:57:05.404Z,56.11
2018-06-13T01:58:05.416Z,56.68
2018-06-13T01:59:05.438Z,56.30
2018-06-13T02:00:05.483Z,56.30
2018-06-13T02:01:05.462Z,56.59
2018-06-13T02:02:05.474Z,56.68
2018-06-13T02:03:05.471Z,56.59
2018-06-13T02:04:05.479Z,56.59
2018-06-13T02:05:05.522Z,56.59
2018-06-13T02:06:05.500Z,56.49
2018-06-13T02:07:05.512Z,56.21
2018-06-13T02:08:05.543Z,56.68
2018-06-13T02:09:05.570Z,56.98
2018-06-13T02:10:05.601Z,56.98
2018-06-13T02:11:05.567Z,57.65
2018-06-13T02:12:05.576Z,56.98
2018-06-13T02:13:05.601Z,57.45
2018-06-13T02:14:05.616Z,57.07
2018-06-13T02:15:05.664Z,57.17
2018-06-13T02:16:05.636Z,56.78
2018-06-13T02:17:05.685Z,56.98
2018-06-13T02:18:05.661Z,57.17
2018-06-13T02:19:05.662Z,57.17
2018-06-13T02:20:05.677Z,57.17
2018-06-13T02:21:05.692Z,57.17
2018-06-13T02:22:05.723Z,57.26
2018-06-13T02:23:05.775Z,57.26
2018-06-13T02:24:05.758Z,57.26
2018-06-13T02:25:05.736Z,57.26
2018-06-13T02:26:05.745Z,57.45
2018-06-13T02:27:05.794Z,57.36
2018-06-13T02:28:05.767Z,57.65
2018-06-13T02:29:05.834Z,57.84
2018-06-13T02:30:05.807Z,57.65
2018-06-13T02:31:05.831Z,57.26
2018-06-13T02:32:05.824Z,57.84
2018-06-13T02:33:05.842Z,58.77
2018-06-13T02:34:05.876Z,57.93
2018-06-13T02:35:05.923Z,58.67
2018-06-13T02:36:05.868Z,58.87
2018-06-13T02:37:05.888Z,58.96
2018-06-13T02:38:05.893Z,59.16
2018-06-13T02:39:05.895Z,58.77
2018-06-13T02:40:05.982Z,58.87
2018-06-13T02:41:05.920Z,58.77
2018-06-13T02:42:05.970Z,59.34
2018-06-13T02:43:05.961Z,59.16
2018-06-13T02:44:05.964Z,58.96
2018-06-13T02:45:05.980Z,58.67
2018-06-13T02:46:06.007Z,58.77
2018-06-13T02:47:06.026Z,59.06
2018-06-13T02:48:06.044Z,59.25
2018-06-13T02:49:06.037Z,60.21
2018-06-13T02:50:06.044Z,60.31
2018-06-13T02:51:06.038Z,60.11
2018-06-13T02:52:06.074Z,60.40
2018-06-13T02:53:06.097Z,61.08
2018-06-13T02:54:06.111Z,59.83
2018-06-13T02:55:06.189Z,60.60
2018-06-13T02:56:06.203Z,61.94
2018-06-13T02:57:06.114Z,61.81
2018-06-13T02:58:06.121Z,61.84
2018-06-13T02:59:06.216Z,60.88
2018-06-13T03:00:06.187Z,60.78
2018-06-13T03:01:06.206Z,61.36
2018-06-13T03:02:06.177Z,61.84
2018-06-13T03:03:06.203Z,61.94
2018-06-13T03:04:06.226Z,61.27
2018-06-13T03:05:06.224Z,61.27
2018-06-13T03:06:06.246Z,61.17
2018-06-13T03:07:06.270Z,61.17
2018-06-13T03:08:06.281Z,61.08
2018-06-13T03:09:06.249Z,61.84
2018-06-13T03:10:06.273Z,61.94
2018-06-13T03:11:06.311Z,61.84
2018-06-13T03:12:06.326Z,61.72
2018-06-13T03:13:06.303Z,62.42
2018-06-13T03:14:06.308Z,62.13
2018-06-13T03:15:06.330Z,62.58
2018-06-13T03:16:06.330Z,62.87
2018-06-13T03:17:06.363Z,62.23
2018-06-13T03:18:06.385Z,62.48
2018-06-13T03:19:06.386Z,62.29
2018-06-13T03:20:06.423Z,62.29
2018-06-13T03:21:06.390Z,62.19
2018-06-13T03:22:06.424Z,62.42
2018-06-13T03:23:06.411Z,62.52
2018-06-13T03:24:06.439Z,62.32
2018-06-13T03:25:06.471Z,62.77
2018-06-13T03:26:06.443Z,62.23
2018-06-13T03:27:06.475Z,62.61
2018-06-13T03:28:06.485Z,62.81
2018-06-13T03:29:06.534Z,62.52
2018-06-13T03:30:06.527Z,63.35
2018-06-13T03:31:06.563Z,62.87
2018-06-13T03:32:06.528Z,63.35
2018-06-13T03:33:06.538Z,63.06
2018-06-13T03:34:06.544Z,63.35
2018-06-13T03:35:06.566Z,63.06
2018-06-13T03:36:06.593Z,64.02
2018-06-13T03:37:06.583Z,64.02
2018-06-13T03:38:06.614Z,63.54
2018-06-13T03:39:06.607Z,63.73
2018-06-13T03:40:06.606Z,63.54
2018-06-13T03:41:06.747Z,63.73
2018-06-13T03:42:06.683Z,63.54
2018-06-13T03:43:06.648Z,63.92
2018-06-13T03:44:06.650Z,64.12
2018-06-13T03:45:06.660Z,63.64
2018-06-13T03:46:06.677Z,63.16
2018-06-13T03:47:06.727Z,63.19
2018-06-13T03:48:06.703Z,63.28
2018-06-13T03:49:06.748Z,63.38
2018-06-13T03:50:06.793Z,63.38
2018-06-13T03:51:06.742Z,63.09
2018-06-13T03:52:06.797Z,62.81
2018-06-13T03:53:06.768Z,63.09
2018-06-13T03:54:06.774Z,63.67
2018-06-13T03:55:06.813Z,63.48
2018-06-13T03:56:06.808Z,63.38
2018-06-13T03:57:06.816Z,63.38
2018-06-13T03:58:06.811Z,62.61
2018-06-13T03:59:06.860Z,63.28
2018-06-13T04:00:06.873Z,63.28
2018-06-13T04:01:06.864Z,63.57
2018-06-13T04:02:06.865Z,63.57
2018-06-13T04:03:06.882Z,63.86
2018-06-13T04:04:06.889Z,63.67
2018-06-13T04:05:06.926Z,64.05
2018-06-13T04:06:06.951Z,63.57
2018-06-13T04:07:06.926Z,63.67
2018-06-13T04:08:06.964Z,63.67
2018-06-13T04:09:06.948Z,64.05
2018-06-13T04:10:06.946Z,64.34
2018-06-13T04:11:06.959Z,64.22
2018-06-13T04:12:07.010Z,64.12
2018-06-13T04:13:07.045Z,63.92
2018-06-13T04:14:07.001Z,64.12
2018-06-13T04:15:07.026Z,64.40
2018-06-13T04:16:07.028Z,64.12
2018-06-13T04:17:07.050Z,63.92
2018-06-13T04:18:07.076Z,63.73
2018-06-13T04:19:07.076Z,64.40
2018-06-13T04:20:07.103Z,64.12
2018-06-13T04:21:07.078Z,64.02
2018-06-13T04:22:07.088Z,63.83
2018-06-13T04:23:07.117Z,64.89
2018-06-13T04:24:07.156Z,63.92
2018-06-13T04:25:07.147Z,63.92
2018-06-13T04:26:07.148Z,64.22
2018-06-13T04:27:07.173Z,63.73
2018-06-13T04:28:07.173Z,63.92
2018-06-13T04:29:07.226Z,63.92
2018-06-13T04:30:07.182Z,64.98
2018-06-13T04:31:07.196Z,63.83
2018-06-13T04:32:07.212Z,64.12
2018-06-13T04:33:07.233Z,63.73
2018-06-13T04:34:07.319Z,63.73
2018-06-13T04:35:07.257Z,64.12
2018-06-13T04:36:07.276Z,64.12
2018-06-13T04:37:07.273Z,63.45
2018-06-13T04:38:07.286Z,63.92
2018-06-13T04:39:07.331Z,64.31
2018-06-13T04:40:07.349Z,64.69
2018-06-13T04:41:07.311Z,64.12
2018-06-13T04:42:07.317Z,64.40
2018-06-13T04:43:07.346Z,64.12
2018-06-13T04:44:07.350Z,63.73
2018-06-13T04:45:07.398Z,63.92
2018-06-13T04:46:07.380Z,64.22
2018-06-13T04:47:07.404Z,64.12
2018-06-13T04:48:07.417Z,64.59
2018-06-13T04:49:07.424Z,64.89
2018-06-13T04:50:07.422Z,64.02
2018-06-13T04:51:07.421Z,64.12
2018-06-13T04:52:07.439Z,63.54
2018-06-13T04:53:07.532Z,63.83
2018-06-13T04:54:07.460Z,62.68
2018-06-13T04:55:07.475Z,62.58
2018-06-13T04:56:07.485Z,62.58
2018-06-13T04:57:07.515Z,63.35
2018-06-13T04:58:07.559Z,63.25
2018-06-13T04:59:07.533Z,63.25
2018-06-13T05:00:07.540Z,63.35
2018-06-13T05:01:07.541Z,63.35
2018-06-13T05:02:07.561Z,62.58
2018-06-13T05:03:07.600Z,63.06
2018-06-13T05:04:07.630Z,62.58
2018-06-13T05:05:07.629Z,63.12
2018-06-13T05:06:07.605Z,63.73
2018-06-13T05:07:07.605Z,63.45
2018-06-13T05:08:07.621Z,63.06
2018-06-13T05:09:07.671Z,63.16
2018-06-13T05:10:07.663Z,62.87
2018-06-13T05:11:07.685Z,62.68
2018-06-13T05:12:07.750Z,62.68
2018-06-13T05:13:07.675Z,62.96
2018-06-13T05:14:07.697Z,63.35
2018-06-13T05:15:07.709Z,63.16
2018-06-13T05:16:07.763Z,63.16
2018-06-13T05:17:07.733Z,62.77
2018-06-13T05:18:07.772Z,62.68
2018-06-13T05:19:07.759Z,62.87
2018-06-13T05:20:07.765Z,62.77
2018-06-13T05:21:07.795Z,62.77
2018-06-13T05:22:07.837Z,62.68
2018-06-13T05:23:07.810Z,63.06
2018-06-13T05:24:07.820Z,62.58
2018-06-13T05:25:07.836Z,62.68
2018-06-13T05:26:07.833Z,62.29
2018-06-13T05:27:07.897Z,62.39
2018-06-13T05:28:07.884Z,62.29
2018-06-13T05:29:07.859Z,62.58
2018-06-13T05:30:07.872Z,62.68
2018-06-13T05:31:07.900Z,62.10
2018-06-13T05:32:08.491Z,62.19
2018-06-13T05:33:07.938Z,62.29
2018-06-13T05:34:07.949Z,61.84
2018-06-13T05:35:07.928Z,62.19
2018-06-13T05:36:07.954Z,61.14
2018-06-13T05:37:07.974Z,61.52
2018-06-13T05:38:07.999Z,61.72
2018-06-13T05:39:08.022Z,61.65
2018-06-13T05:40:07.994Z,61.75
2018-06-13T05:41:08.015Z,62.04
2018-06-13T05:42:08.043Z,62.04
2018-06-13T05:43:08.041Z,62.52
2018-06-13T05:44:08.073Z,62.90
2018-06-13T05:45:08.081Z,62.90
2018-06-13T05:46:08.068Z,62.23
2018-06-13T05:47:08.105Z,62.32
2018-06-13T05:48:08.103Z,62.61
2018-06-13T05:49:08.105Z,62.42
2018-06-13T05:50:08.113Z,62.42
2018-06-13T05:51:08.156Z,62.23
2018-06-13T05:52:08.134Z,62.23
2018-06-13T05:53:08.195Z,62.52
2018-06-13T05:54:08.178Z,62.42
2018-06-13T05:55:08.190Z,62.61
2018-06-13T05:56:08.183Z,61.94
2018-06-13T05:57:08.201Z,61.94
2018-06-13T05:58:08.255Z,61.84
2018-06-13T05:59:08.215Z,62.32
2018-06-13T06:00:08.228Z,62.04
2018-06-13T06:01:08.281Z,62.13
2018-06-13T06:02:08.244Z,62.04
2018-06-13T06:03:08.255Z,62.04
2018-06-13T06:04:08.293Z,62.04
2018-06-13T06:05:08.279Z,61.27
2018-06-13T06:06:08.332Z,62.04
2018-06-13T06:07:08.318Z,61.84
2018-06-13T06:08:08.332Z,62.04
2018-06-13T06:09:08.383Z,61.75
2018-06-13T06:10:08.409Z,61.65
2018-06-13T06:11:08.409Z,61.17
2018-06-13T06:12:08.375Z,61.08
2018-06-13T06:13:08.377Z,61.65
2018-06-13T06:14:08.401Z,61.84
2018-06-13T06:15:08.410Z,61.46
2018-06-13T06:16:08.450Z,61.75
2018-06-13T06:17:08.445Z,61.46
2018-06-13T06:18:08.449Z,61.75
2018-06-13T06:19:09.381Z,62.23
2018-06-13T06:20:08.516Z,61.46
2018-06-13T06:21:08.478Z,61.65
2018-06-13T06:22:08.496Z,61.84
2018-06-13T06:23:08.507Z,61.68
2018-06-13T06:24:08.531Z,61.75
2018-06-13T06:25:08.551Z,61.84
2018-06-13T06:26:08.648Z,61.30
2018-06-13T06:27:08.773Z,60.63
2018-06-13T06:28:08.620Z,61.01
2018-06-13T06:29:08.565Z,60.63
2018-06-13T06:30:08.584Z,60.34
2018-06-13T06:31:08.587Z,60.43
2018-06-13T06:32:08.653Z,59.38
2018-06-13T06:33:08.650Z,59.95
2018-06-13T06:34:08.634Z,59.86
2018-06-13T06:35:08.641Z,60.24
2018-06-13T06:36:08.647Z,60.05
2018-06-13T06:37:08.690Z,60.14
2018-06-13T06:38:08.701Z,59.66
2018-06-13T06:39:08.725Z,59.57
2018-06-13T06:40:08.728Z,60.14
2018-06-13T06:41:08.714Z,59.76
2018-06-13T06:42:08.754Z,59.47
2018-06-13T06:43:08.800Z,59.09
2018-06-13T06:44:08.748Z,59.28
2018-06-13T06:45:08.744Z,58.61
2018-06-13T06:46:08.763Z,59.95
2018-06-13T06:47:08.770Z,58.61
2018-06-13T06:48:08.814Z,58.22
2018-06-13T06:49:08.797Z,58.80
2018-06-13T06:50:08.836Z,58.13
2018-06-13T06:51:08.816Z,58.70
2018-06-13T06:52:08.853Z,58.58
2018-06-13T06:53:08.868Z,58.61
2018-06-13T06:54:08.857Z,59.19
2018-06-13T06:55:08.995Z,58.99
2018-06-13T06:56:08.873Z,59.09
2018-06-13T06:57:08.885Z,58.70
2018-06-13T06:58:08.917Z,59.19
2018-06-13T06:59:08.926Z,59.28
2018-06-13T07:00:08.955Z,58.70
2018-06-13T07:01:08.962Z,58.80
2018-06-13T07:02:08.962Z,58.80
2018-06-13T07:03:08.999Z,57.93
2018-06-13T07:04:08.979Z,57.36
2018-06-13T07:05:08.997Z,57.07
2018-06-13T07:06:08.998Z,57.45
2018-06-13T07:07:09.039Z,57.36
2018-06-13T07:08:09.032Z,57.36
2018-06-13T07:09:09.032Z,57.36
2018-06-13T07:10:09.082Z,57.26
2018-06-13T07:11:09.059Z,57.36
2018-06-13T07:12:09.107Z,57.20
2018-06-13T07:13:09.113Z,57.17
2018-06-13T07:14:09.106Z,56.88
2018-06-13T07:15:09.149Z,57.17
2018-06-13T07:16:09.112Z,56.88
2018-06-13T07:17:09.136Z,57.45
2018-06-13T07:18:09.159Z,57.45
2018-06-13T07:19:09.151Z,58.13
2018-06-13T07:20:09.212Z,57.75
2018-06-13T07:21:09.190Z,57.65
2018-06-13T07:22:09.215Z,57.26
2018-06-13T07:23:09.220Z,57.36
2018-06-13T07:24:09.230Z,57.10
2018-06-13T07:25:09.261Z,57.00
2018-06-13T07:26:09.246Z,57.00
2018-06-13T07:27:09.251Z,57.20
2018-06-13T07:28:09.301Z,57.48
2018-06-13T07:29:09.282Z,57.00
2018-06-13T07:30:09.291Z,57.39
2018-06-13T07:31:09.332Z,57.20
2018-06-13T07:32:09.321Z,57.00
2018-06-13T07:33:09.356Z,56.91
2018-06-13T07:34:09.340Z,56.91
2018-06-13T07:35:09.355Z,56.43
2018-06-13T07:36:09.365Z,56.62
2018-06-13T07:37:09.483Z,56.43
2018-06-13T07:38:09.378Z,56.62
2018-06-13T07:39:09.406Z,55.85
2018-06-13T07:40:09.410Z,55.98
2018-06-13T07:41:09.419Z,56.23
2018-06-13T07:42:09.484Z,56.52
2018-06-13T07:43:09.454Z,56.74
2018-06-13T07:44:09.504Z,56.81
2018-06-13T07:45:09.478Z,56.45
2018-06-13T07:46:09.490Z,56.26
2018-06-13T07:47:09.516Z,55.88
2018-06-13T07:48:09.508Z,55.78
2018-06-13T07:49:09.562Z,56.07
2018-06-13T07:50:09.587Z,55.98
2018-06-13T07:51:09.549Z,55.98
2018-06-13T07:52:09.554Z,55.88
2018-06-13T07:53:09.609Z,55.98
2018-06-13T07:54:09.592Z,55.88
2018-06-13T07:55:09.646Z,56.55
2018-06-13T07:56:09.605Z,56.38
2018-06-13T07:57:09.638Z,56.45
2018-06-13T07:58:09.661Z,55.88
2018-06-13T07:59:09.703Z,56.20
2018-06-13T08:00:09.673Z,55.68
2018-06-13T08:01:09.682Z,55.11
2018-06-13T08:02:09.718Z,54.63
2018-06-13T08:03:09.701Z,54.05
2018-06-13T08:04:09.779Z,54.43
2018-06-13T08:05:09.757Z,54.43
2018-06-13T08:06:09.749Z,54.24
2018-06-13T08:07:09.754Z,54.63
2018-06-13T08:08:09.760Z,54.34
2018-06-13T08:09:09.830Z,54.46
2018-06-13T08:10:09.807Z,54.27
2018-06-13T08:11:09.784Z,54.34
2018-06-13T08:12:09.826Z,54.05
2018-06-13T08:13:09.824Z,53.76
2018-06-13T08:14:09.881Z,53.86
2018-06-13T08:15:09.896Z,53.47
2018-06-13T08:16:09.858Z,53.38
2018-06-13T08:17:09.861Z,53.66
2018-06-13T08:18:09.886Z,53.57
2018-06-13T08:19:09.911Z,53.57
2018-06-13T08:20:09.965Z,53.38
2018-06-13T08:21:09.926Z,53.28
2018-06-13T08:22:09.943Z,52.80
2018-06-13T08:23:09.943Z,52.99
2018-06-13T08:24:09.959Z,52.61
2018-06-13T08:25:10.038Z,52.03
2018-06-13T08:26:10.037Z,52.12
2018-06-13T08:27:10.051Z,52.22
2018-06-13T08:28:10.020Z,52.70
2018-06-13T08:29:10.013Z,52.12
2018-06-13T08:30:10.038Z,52.80
2018-06-13T08:31:10.045Z,53.19
2018-06-13T08:32:10.092Z,52.89
2018-06-13T08:33:10.070Z,52.61
2018-06-13T08:34:10.072Z,52.99
2018-06-13T08:35:10.137Z,53.19
2018-06-13T08:36:10.100Z,53.47
2018-06-13T08:37:10.151Z,52.99
2018-06-13T08:38:10.162Z,52.83
2018-06-13T08:39:10.155Z,52.80
2018-06-13T08:40:10.151Z,52.80
2018-06-13T08:41:10.166Z,52.63
2018-06-13T08:42:10.176Z,52.73
2018-06-13T08:43:10.247Z,52.63
2018-06-13T08:44:10.198Z,52.12
2018-06-13T08:45:10.213Z,52.34
2018-06-13T08:46:10.227Z,52.80
2018-06-13T08:47:10.244Z,52.61
2018-06-13T08:48:10.301Z,51.45
2018-06-13T08:49:10.373Z,51.26
2018-06-13T08:50:10.316Z,51.26
2018-06-13T08:51:10.292Z,50.78
2018-06-13T08:52:10.298Z,50.59
2018-06-13T08:53:10.318Z,50.78
2018-06-13T08:54:10.331Z,50.20
2018-06-13T08:55:10.430Z,50.40
2018-06-13T08:56:10.351Z,50.68
2018-06-13T08:57:10.357Z,50.97
2018-06-13T08:58:10.375Z,50.97
2018-06-13T08:59:10.381Z,50.87
2018-06-13T09:00:10.423Z,50.59
2018-06-13T09:01:10.457Z,51.04
2018-06-13T09:02:10.417Z,51.72
2018-06-13T09:03:10.461Z,51.91
2018-06-13T09:04:10.496Z,52.29
2018-06-13T09:05:10.466Z,51.91
2018-06-13T09:06:10.464Z,52.29
2018-06-13T09:07:10.494Z,52.48
2018-06-13T09:08:10.498Z,52.58
2018-06-13T09:09:10.640Z,51.91
2018-06-13T09:10:10.537Z,52.77
2018-06-13T09:11:10.545Z,52.89
2018-06-13T09:12:10.553Z,52.61
2018-06-13T09:13:10.597Z,52.70
2018-06-13T09:14:10.587Z,52.89
2018-06-13T09:15:10.614Z,52.61
2018-06-13T09:16:10.621Z,52.89
2018-06-13T09:17:10.611Z,52.51
2018-06-13T09:18:10.624Z,52.89
2018-06-13T09:19:10.631Z,52.99
2018-06-13T09:20:10.689Z,52.99
2018-06-13T09:21:10.701Z,52.99
2018-06-13T09:22:10.664Z,52.89
2018-06-13T09:23:10.715Z,52.80
2018-06-13T09:24:10.696Z,53.09
2018-06-13T09:25:10.700Z,52.42
2018-06-13T09:26:10.764Z,51.48
2018-06-13T09:27:10.776Z,51.76
2018-06-13T09:28:10.740Z,51.26
2018-06-13T09:29:10.755Z,50.78
2018-06-13T09:30:10.769Z,50.78
2018-06-13T09:31:10.841Z,51.45
2018-06-13T09:32:10.842Z,51.64
2018-06-13T09:33:10.830Z,52.03
2018-06-13T09:34:10.875Z,51.45
2018-06-13T09:35:10.825Z,51.45
2018-06-13T09:36:10.843Z,51.64
2018-06-13T09:37:10.859Z,51.17
2018-06-13T09:38:10.880Z,51.23
2018-06-13T09:39:10.921Z,51.17
2018-06-13T09:40:10.926Z,51.33
2018-06-13T09:41:10.915Z,51.43
2018-06-13T09:42:10.933Z,51.64
2018-06-13T09:43:10.928Z,50.59
2018-06-13T09:44:10.940Z,50.49
2018-06-13T09:45:11.009Z,51.14
2018-06-13T09:46:12.016Z,51.23
2018-06-13T09:47:15.130Z,51.43
2018-06-13T09:48:11.019Z,51.81
2018-06-13T09:49:11.078Z,52.68
2018-06-13T09:50:11.089Z,52.87
2018-06-13T09:51:11.099Z,52.48
2018-06-13T09:52:11.050Z,53.06
2018-06-13T09:53:11.203Z,53.16
2018-06-13T09:54:11.077Z,52.48
2018-06-13T09:55:11.075Z,52.48
2018-06-13T09:56:11.094Z,53.35
2018-06-13T09:57:11.135Z,53.06
2018-06-13T09:58:11.135Z,53.35
2018-06-13T09:59:11.178Z,53.83
2018-06-13T10:00:11.222Z,54.38
2018-06-13T10:01:11.163Z,54.31
2018-06-13T10:02:11.203Z,54.60
2018-06-13T10:03:11.198Z,54.22
2018-06-13T10:04:11.227Z,54.99
2018-06-13T10:05:11.200Z,54.50
2018-06-13T10:06:11.208Z,54.69
2018-06-13T10:07:11.216Z,54.99
2018-06-13T10:08:11.268Z,54.79
2018-06-13T10:09:11.335Z,54.41
2018-06-13T10:10:11.280Z,54.79
2018-06-13T10:11:11.322Z,55.18
2018-06-13T10:12:11.287Z,54.99
2018-06-13T10:13:11.294Z,54.99
2018-06-13T10:14:11.346Z,54.69
2018-06-13T10:15:11.317Z,55.18
2018-06-13T10:16:11.323Z,54.69
2018-06-13T10:17:11.367Z,54.89
2018-06-13T10:18:11.347Z,55.18
2018-06-13T10:19:11.367Z,54.50
2018-06-13T10:20:11.373Z,54.60
2018-06-13T10:21:11.441Z,54.79
2018-06-13T10:22:11.439Z,55.01
2018-06-13T10:23:11.408Z,54.34
2018-06-13T10:24:11.427Z,53.96
2018-06-13T10:25:11.455Z,53.57
2018-06-13T10:26:11.486Z,53.47
2018-06-13T10:27:11.491Z,53.66
2018-06-13T10:28:11.473Z,52.70
2018-06-13T10:29:11.486Z,52.99
2018-06-13T10:30:11.518Z,52.89
2018-06-13T10:31:11.526Z,52.32
2018-06-13T10:32:11.546Z,51.64
2018-06-13T10:33:11.582Z,51.35
2018-06-13T10:34:11.557Z,51.76
2018-06-13T10:35:11.557Z,51.55
2018-06-13T10:36:11.570Z,51.86
2018-06-13T10:37:11.710Z,51.86
2018-06-13T10:38:11.620Z,51.57
2018-06-13T10:39:11.620Z,50.81
2018-06-13T10:40:11.632Z,51.86
2018-06-13T10:41:11.638Z,51.09
2018-06-13T10:42:11.698Z,51.38
2018-06-13T10:43:11.672Z,51.38
2018-06-13T10:44:11.705Z,51.76
2018-06-13T10:45:11.685Z,51.38
2018-06-13T10:46:11.778Z,50.90
2018-06-13T10:47:11.734Z,51.09
2018-06-13T10:48:11.728Z,51.19
2018-06-13T10:49:11.779Z,50.32
2018-06-13T10:50:11.820Z,50.51
2018-06-13T10:51:11.760Z,50.71
2018-06-13T10:52:11.779Z,50.81
2018-06-13T10:53:11.823Z,49.94
2018-06-13T10:54:11.896Z,50.23
2018-06-13T10:55:11.841Z,49.94
2018-06-13T10:56:11.861Z,50.61
2018-06-13T10:57:11.865Z,50.23
2018-06-13T10:58:11.868Z,50.23
2018-06-13T10:59:11.899Z,50.23
2018-06-13T11:00:11.881Z,50.13
2018-06-13T11:01:11.929Z,49.68
2018-06-13T11:02:11.914Z,50.23
2018-06-13T11:03:12.000Z,49.65
2018-06-13T11:04:11.961Z,49.55
2018-06-13T11:05:11.954Z,49.58
2018-06-13T11:06:12.020Z,50.13
2018-06-13T11:07:12.042Z,49.94
2018-06-13T11:08:12.005Z,50.13
2018-06-13T11:09:12.012Z,50.04
2018-06-13T11:10:12.013Z,50.23
2018-06-13T11:11:12.093Z,49.65
2018-06-13T11:12:12.033Z,50.71
2018-06-13T11:13:12.048Z,51.55
2018-06-13T11:14:12.073Z,52.42
2018-06-13T11:15:12.068Z,52.42
2018-06-13T11:16:12.121Z,52.80
2018-06-13T11:17:12.121Z,52.51
2018-06-13T11:18:12.119Z,52.54
2018-06-13T11:19:12.125Z,52.34
2018-06-13T11:20:12.146Z,52.92
2018-06-13T11:21:12.171Z,52.83
2018-06-13T11:22:12.149Z,52.73
2018-06-13T11:23:12.163Z,52.92
2018-06-13T11:24:12.211Z,52.92
2018-06-13T11:25:12.226Z,52.63
2018-06-13T11:26:12.277Z,52.83
2018-06-13T11:27:12.228Z,52.70
2018-06-13T11:28:12.276Z,52.73
2018-06-13T11:29:12.237Z,53.02
2018-06-13T11:30:12.254Z,52.89
2018-06-13T11:31:12.310Z,53.57
2018-06-13T11:32:12.288Z,53.38
2018-06-13T11:33:12.363Z,53.76
2018-06-13T11:34:12.298Z,53.66
2018-06-13T11:35:12.329Z,53.57
2018-06-13T11:36:12.367Z,54.05
2018-06-13T11:37:12.467Z,54.05
2018-06-13T11:38:12.380Z,53.76
2018-06-13T11:39:12.376Z,54.63
2018-06-13T11:40:12.384Z,54.63
2018-06-13T11:41:12.385Z,54.34
2018-06-13T11:42:12.416Z,54.05
2018-06-13T11:43:12.436Z,54.34
2018-06-13T11:44:12.420Z,54.14
2018-06-13T11:45:12.550Z,54.43
2018-06-13T11:46:12.475Z,53.76
2018-06-13T11:47:12.476Z,53.57
2018-06-13T11:48:12.500Z,54.34
2018-06-13T11:49:12.484Z,54.34
2018-06-13T11:50:12.550Z,54.53
2018-06-13T11:51:12.514Z,54.82
2018-06-13T11:52:12.526Z,54.43
2018-06-13T11:53:12.530Z,54.63
2018-06-13T11:54:12.544Z,53.86
2018-06-13T11:55:12.626Z,53.47
2018-06-13T11:56:12.597Z,53.86
2018-06-13T11:57:12.597Z,53.69
2018-06-13T11:58:12.651Z,54.65
2018-06-13T11:59:12.645Z,53.57
2018-06-13T12:00:12.623Z,53.57
2018-06-13T12:01:12.669Z,53.38
2018-06-13T12:02:12.648Z,53.66
2018-06-13T12:03:12.778Z,53.76
2018-06-13T12:04:12.697Z,53.76
2018-06-13T12:05:12.703Z,53.11
2018-06-13T12:06:12.819Z,53.76
2018-06-13T12:07:12.717Z,53.19
2018-06-13T12:08:12.749Z,52.89
2018-06-13T12:09:12.731Z,52.89
2018-06-13T12:10:12.780Z,52.70
2018-06-13T12:11:12.757Z,52.70
2018-06-13T12:12:12.792Z,52.80
2018-06-13T12:13:12.805Z,53.19
2018-06-13T12:14:12.792Z,52.99
2018-06-13T12:15:12.828Z,53.38
2018-06-13T12:16:12.818Z,52.99
2018-06-13T12:17:12.836Z,53.09
2018-06-13T12:18:12.837Z,53.28
2018-06-13T12:19:12.866Z,53.76
2018-06-13T12:20:12.963Z,53.38
2018-06-13T12:21:12.880Z,54.22
2018-06-13T12:22:12.894Z,54.89
2018-06-13T12:23:12.901Z,54.99
2018-06-13T12:24:12.924Z,54.89
2018-06-13T12:25:12.955Z,54.41
2018-06-13T12:26:13.005Z,55.08
2018-06-13T12:27:12.957Z,55.56
2018-06-13T12:28:12.971Z,55.37
2018-06-13T12:29:12.974Z,56.04
2018-06-13T12:30:13.037Z,55.94
2018-06-13T12:31:13.056Z,56.14
2018-06-13T12:32:13.043Z,56.52
2018-06-13T12:33:13.024Z,56.81
2018-06-13T12:34:13.124Z,56.23
2018-06-13T12:35:13.086Z,56.33
2018-06-13T12:36:13.065Z,56.52
2018-06-13T12:37:13.083Z,56.23
2018-06-13T12:38:13.115Z,55.94
2018-06-13T12:39:13.095Z,56.62
2018-06-13T12:40:13.191Z,56.04
2018-06-13T12:41:13.168Z,56.43
2018-06-13T12:42:13.160Z,57.00
2018-06-13T12:43:13.146Z,57.00
2018-06-13T12:44:13.154Z,57.20
2018-06-13T12:45:13.216Z,57.29
2018-06-13T12:46:13.579Z,57.29
2018-06-13T12:47:13.245Z,57.20
2018-06-13T12:48:13.266Z,57.20
2018-06-13T12:49:13.223Z,57.00
2018-06-13T12:50:13.227Z,57.10
2018-06-13T12:51:14.045Z,57.29
2018-06-13T12:52:13.286Z,56.91